< < Back
Terminal Aerodrome Forecast


Current Version              Previous Versions:   1  2  3  4  5  6  7  8  9  

Terminal Aerodrome Forecast

185
FTUS44 KOHX 251300 AAA
TAFCSV
TAF AMD
KCSV 251300Z 2513/2612 00000KT P6SM SKC
     FM251400 33004KT P6SM SKC
     FM260600 12004KT 4SM BR SKC=

Latest METAR

368
SAUS70 KWBC 261000 RRB
MTRCSV
METAR KCSV 260953Z AUTO 00000KT 6SM BR CLR 19/18 A3019 RMK AO2 SLP200
T01890178


USA.gov is the U.S. government's official web portal to all federal, state and local government web resources and services.